Saturday, February 24, 2018, 3:11 AM EST
Back to Local

KMRB, Martinsburg Eastern Wv Reg

Location: Martinsburg, WV, United States Lat: 39.4
Local Time: 3:11 AM EST ( 8:11 GMT) Lon: -77.983
Time Zone: US/Eastern Elev: 557 ft

Show me the last for .
Show Decoded

2018-02-24 02:53 METAR KMRB 240753Z AUTO 00000KT 1/4SM FG VV002 06/06 A3016 RMK AO2 SLP216
                 T00560056 =
2018-02-24 02:03 METAR KMRB 240703Z AUTO 00000KT 1/4SM FG VV002 06/06 A3018 RMK AO2 T00560056 =
2018-02-24 01:53 METAR KMRB 240653Z AUTO 00000KT 1/2SM FG VV002 06/06 A3018 RMK AO2 SLP223
                 T00560056 =
2018-02-24 01:27 METAR KMRB 240627Z AUTO 17004KT 3/4SM BR OVC002 06/06 A3019 RMK AO2 T00610061 =
2018-02-24 01:03 METAR KMRB 240603Z AUTO 00000KT 1 1/4SM BR OVC002 06/06 A3020 RMK AO2 T00610061
                 =
2018-02-24 00:53 METAR KMRB 240553Z AUTO 21004KT 3/4SM BR OVC002 06/06 A3020 RMK AO2 SLP231
                 T00610061 10067 20061 56016 =
2018-02-24 00:36 METAR KMRB 240536Z AUTO 20003KT 3/4SM BR OVC002 06/06 A3021 RMK AO2 T00610061 =
2018-02-23 23:53 METAR KMRB 240453Z AUTO 00000KT 1 1/4SM BR OVC003 06/06 A3021 RMK AO2 SLP233
                 T00610056 400780039 =
2018-02-23 23:18 METAR KMRB 240418Z AUTO 19003KT 1SM BR OVC003 06/06 A3022 RMK AO2 T00610061 =
2018-02-23 22:53 METAR KMRB 240353Z AUTO 00000KT 3/4SM BR OVC003 07/07 A3023 RMK AO2 SLP240
                 T00670067 =
2018-02-23 22:45 METAR KMRB 240345Z AUTO 00000KT 1 1/4SM BR OVC003 07/07 A3024 RMK AO2 T00670067
                 =
2018-02-23 22:30 METAR KMRB 240330Z 00000KT 2 1/2SM BR OVC004 07/06 A3024 RMK AO2 T00670061 =
2018-02-23 21:53 METAR KMRB 240253Z 00000KT 7SM OVC008 07/06 A3025 RMK AO2 SLP247 T00670061 56012
                 =
2018-02-23 20:53 METAR KMRB 240153Z 00000KT 8SM OVC009 07/06 A3025 RMK AO2 SLP247 T00670056 =
2018-02-23 19:53 METAR KMRB 240053Z 01003KT 10SM OVC009 07/06 A3027 RMK AO2 SLP254 T00670061 =
2018-02-23 18:53 METAR KMRB 232353Z 00000KT 10SM OVC009 07/06 A3029 RMK AO2 SLP259 T00670061
                 10078 20061 55011 =
2018-02-23 17:53 METAR KMRB 232253Z 00000KT 10SM OVC009 07/06 A3028 RMK AO2 SLP258 T00720056 =
2018-02-23 17:24 METAR KMRB 232224Z 13003KT 10SM OVC010 07/06 A3029 RMK AO2 T00720056 =
2018-02-23 16:53 METAR KMRB 232153Z VRB03KT 10SM OVC009 07/06 A3031 RMK AO2 SLP266 T00720056 =
2018-02-23 15:53 METAR KMRB 232053Z 07006KT 10SM OVC011 07/06 A3032 RMK AO2 SLP269 T00720056
                 56030 =
2018-02-23 14:53 METAR KMRB 231953Z 15006KT 10SM OVC010 07/05 A3034 RMK AO2 SLP276 T00720050 =
2018-02-23 14:35 METAR KMRB 231935Z 15006KT 10SM OVC010 07/05 A3034 RMK AO2 T00720050 =
2018-02-23 13:53 METAR KMRB 231853Z 14008KT 10SM OVC009 07/05 A3035 RMK AO2 SLP281 T00670050 =
2018-02-23 12:53 METAR KMRB 231753Z 18005KT 10SM OVC009 06/04 A3041 RMK AO2 SLP300 T00610044
                 10061 20039 58035 =
2018-02-23 11:53 METAR KMRB 231653Z 13005KT 4SM BR OVC007 05/04 A3046 RMK AO2 SLP317 T00500044 =
2018-02-23 10:53 METAR KMRB 231553Z 13005KT 10SM OVC008 05/04 A3049 RMK AO2 SLP329 T00500039 =
2018-02-23 09:53 METAR KMRB 231453Z 13005KT 10SM OVC009 04/03 A3051 RMK AO2 SLP336 T00440033
                 58005 =
2018-02-23 08:53 METAR KMRB 231353Z 13006KT 10SM OVC008 04/03 A3053 RMK AO2 SLP343 T00440033 =
2018-02-23 07:53 METAR KMRB 231253Z 12004KT 10SM OVC009 04/03 A3053 RMK AO2 CIG 007V013 SLP342
                 T00390033 =
2018-02-23 06:53 METAR KMRB 231153Z 00000KT 10SM OVC011 04/03 A3053 RMK AO2 SLP344 60004 70007
                 T00390033 10044 20039 55004 =
2018-02-23 06:07 METAR KMRB 231107Z AUTO 16005KT 5SM BR SCT005 OVC010 04/03 A3054 RMK AO2
                 T00390033 =
2018-02-23 05:53 METAR KMRB 231053Z AUTO 13004KT 4SM BR BKN005 OVC010 04/03 A3053 RMK AO2 SLP343
                 T00390033 =
2018-02-23 05:44 METAR KMRB 231044Z AUTO VRB03KT 3SM BR BKN006 OVC011 04/04 A3053 RMK AO2
                 T00390039 =
2018-02-23 05:28 METAR KMRB 231028Z AUTO 00000KT 4SM BR SCT006 OVC011 04/04 A3053 RMK AO2
                 T00390039 =
2018-02-23 05:21 METAR KMRB 231021Z AUTO 16007KT 4SM BR BKN006 OVC011 04/04 A3054 RMK AO2 CIG
                 004V009 T00390039 =
2018-02-23 05:04 METAR KMRB 231004Z AUTO 13003KT 2 1/2SM BR OVC007 04/04 A3054 RMK AO2 CIG
                 004V010 T00390039 =
2018-02-23 04:53 METAR KMRB 230953Z AUTO 00000KT 4SM BR FEW004 BKN008 OVC015 04/04 A3055 RMK AO2
                 CIG 006V011 SLP347 P0001 T00440039 =
2018-02-23 04:51 METAR KMRB 230951Z AUTO 00000KT 4SM BR BKN008 OVC015 04/04 A3055 RMK AO2 CIG
                 006V012 P0001 =
2018-02-23 04:38 METAR KMRB 230938Z AUTO 00000KT 7SM FEW006 OVC014 04/04 A3055 RMK AO2 P0001
                 T00440039 =
2018-02-23 03:53 METAR KMRB 230853Z AUTO 09004KT 5SM BR FEW005 OVC009 04/04 A3055 RMK AO2 RAE42
                 SLP347 P0003 60003 T00440039 58004 =
2018-02-23 03:49 METAR KMRB 230849Z AUTO 09003KT 5SM BR OVC010 04/04 A3055 RMK AO2 RAE42 P0003 =

Support USWX by starting your Amazon purchase here.